MNL weather

Ninoy Aquino International Airport
Manila, Philippines

Public forecast

Using degrees Celsius for public forecast. Weather courtesy of forecast.io.

METAR (pilot weather report)

Retrieved 2019/04/18 10:00 UTC (59 seconds ago):

RPLL 181000Z 20006KT 160V330 9999 FEW022CB FEW023 BKN090 31/26 Q1008 RESHRA NOSIG RMK A2977 CB NNW-NNE

TAF (pilot weather forecast)

Retrieved 2019/04/18 06:00 UTC (4 hours ago):

TAF RPLL 180500Z 1806/1912 12004KT 9999 FEW023 SCT100 TX36/1806Z TN29/1822Z TEMPO 1806/1812 16006KT SCT023 BKN100 TEMPO 1812/1818 10007KT FEW025